Main page
METAR-TAF:

METAR-TAF

Airports :

Herat International Airport

Herat, Afghanistan

latitude: 34-13N, longitude: 062-13E, elevation: 964 m

Current weather observation

The report was made 50 minutes ago, at 02:55 UTC
Calm wind
Temperature 1°C
Humidity 51%
Pressure 1021 hPa
Visibility 10 km or more
no clouds below 1500 m and no cumulonimbus

METAR: OAHR 010255Z 00000KT CAVOK 01/M08 Q1021 RMK FEW200 A3016 BLU

Time: 08:15 (03:45 UTC)

Forecast

The report was made 2 hours and 15 minutes ago, at 01:30 UTC
Forecast valid from 01 at 02 UTC to 01 at 24 UTC
Wind 3 kt from variable directions
Visibility 10 km or more
no clouds below 1500 m and no cumulonimbus
Becoming
from 01 at 08 UTC to 01 at 10 UTC
Wind 12 kt from the Southwest with gusts up to 25 kt
Becoming
from 01 at 15 UTC to 01 at 17 UTC
Wind 8 kt from the Southeast
Visibility 10 km or more
Scattered clouds at a height of 9000 ft

TAF: OAHR 010130Z 0102/0124 VRB03KT CAVOK BECMG 0108/0110 22012G25KT BECMG 0115/0117 13008KT 9999 SCT090

Weather observations and forecasts of more than 4000 airports (METAR and TAF reports).

The available stations are represented by yellow and red dots on the map.

Hover mouse over dot to see the name of the station.

Then click to see weather observations and forecasts.

To change the map : click on the green buttons with a black cross to zoom in, on the green button with a dash to zoom out, or on the green arrows for adjacent maps.


METAR-TAF: